createdAt,value
2019-01-20T00:01:33.720Z,-5.35
2019-01-20T00:04:06.144Z,-5.37
2019-01-20T00:06:38.637Z,-5.40
2019-01-20T00:09:11.773Z,-5.41
2019-01-20T00:11:44.311Z,-5.44
2019-01-20T00:14:16.711Z,-5.45
2019-01-20T00:16:49.074Z,-5.45
2019-01-20T00:19:21.379Z,-5.44
2019-01-20T00:21:55.308Z,-5.39
2019-01-20T00:24:27.598Z,-5.40
2019-01-20T00:27:01.166Z,-5.37
2019-01-20T00:29:33.535Z,-5.36
2019-01-20T00:32:05.906Z,-5.40
2019-01-20T00:34:38.200Z,-5.44
2019-01-20T00:37:10.567Z,-5.47
2019-01-20T00:39:42.907Z,-5.47
2019-01-20T00:42:15.225Z,-5.52
2019-01-20T00:44:47.760Z,-5.47
2019-01-20T00:47:20.084Z,-5.46
2019-01-20T00:49:52.518Z,-5.51
2019-01-20T00:52:24.780Z,-5.54
2019-01-20T00:54:57.098Z,-5.65
2019-01-20T00:57:29.714Z,-5.62
2019-01-20T01:00:02.015Z,-5.71
2019-01-20T01:02:34.561Z,-5.69
2019-01-20T01:05:07.013Z,-5.63
2019-01-20T01:07:40.227Z,-5.68
2019-01-20T01:10:12.763Z,-5.73
2019-01-20T01:12:45.773Z,-5.74
2019-01-20T01:15:18.094Z,-5.70
2019-01-20T01:17:50.488Z,-5.71
2019-01-20T01:20:22.772Z,-5.73
2019-01-20T01:22:55.116Z,-5.73
2019-01-20T01:25:27.449Z,-5.79
2019-01-20T01:27:59.765Z,-5.82
2019-01-20T01:30:32.225Z,-5.83
2019-01-20T01:33:04.637Z,-5.87
2019-01-20T01:35:36.958Z,-5.91
2019-01-20T01:38:09.450Z,-5.96
2019-01-20T01:40:41.794Z,-5.95
2019-01-20T01:43:14.148Z,-5.99
2019-01-20T01:45:46.522Z,-6.02
2019-01-20T01:48:18.805Z,-6.00
2019-01-20T01:50:51.128Z,-5.99
2019-01-20T01:53:23.443Z,-5.94
2019-01-20T01:55:55.861Z,-6.00
2019-01-20T01:58:30.234Z,-6.02
2019-01-20T02:01:02.542Z,-6.02
2019-01-20T02:03:34.974Z,-6.00
2019-01-20T02:06:07.436Z,-6.03
2019-01-20T02:08:39.843Z,-6.03
2019-01-20T02:11:12.308Z,-6.07
2019-01-20T02:13:44.723Z,-6.07
2019-01-20T02:16:17.072Z,-6.11
2019-01-20T02:18:49.403Z,-6.13
2019-01-20T02:21:21.793Z,-6.14
2019-01-20T02:23:54.151Z,-6.16
2019-01-20T02:26:26.449Z,-6.13
2019-01-20T02:28:58.871Z,-6.15
2019-01-20T02:31:31.243Z,-6.16
2019-01-20T02:34:03.614Z,-6.18
2019-01-20T02:36:35.947Z,-6.23
2019-01-20T02:39:08.384Z,-6.24
2019-01-20T02:41:40.743Z,-6.31
2019-01-20T02:44:13.073Z,-6.33
2019-01-20T02:46:45.357Z,-6.30
2019-01-20T02:49:17.692Z,-6.32
2019-01-20T02:51:50.181Z,-6.35
2019-01-20T02:54:22.543Z,-6.39
2019-01-20T02:56:54.904Z,-6.38
2019-01-20T02:59:27.338Z,-6.42
2019-01-20T03:01:59.730Z,-6.44
2019-01-20T03:04:32.043Z,-6.42
2019-01-20T03:07:04.375Z,-6.44
2019-01-20T03:09:36.654Z,-6.41
2019-01-20T03:12:09.554Z,-6.40
2019-01-20T03:14:41.914Z,-6.39
2019-01-20T03:17:14.206Z,-6.40
2019-01-20T03:19:46.618Z,-6.37
2019-01-20T03:22:18.889Z,-6.41
2019-01-20T03:24:51.192Z,-6.35
2019-01-20T03:27:23.532Z,-6.40
2019-01-20T03:29:55.878Z,-6.42
2019-01-20T03:32:28.185Z,-6.41
2019-01-20T03:35:00.601Z,-6.38
2019-01-20T03:37:32.917Z,-6.36
2019-01-20T03:40:06.560Z,-6.34
2019-01-20T03:42:38.923Z,-6.33
2019-01-20T03:45:13.440Z,-6.32
2019-01-20T03:47:45.796Z,-6.30
2019-01-20T03:50:18.151Z,-6.31
2019-01-20T03:52:50.466Z,-6.26
2019-01-20T03:55:23.852Z,-6.27
2019-01-20T03:57:56.164Z,-6.30
2019-01-20T04:00:28.520Z,-6.30
2019-01-20T04:03:02.775Z,-6.31
2019-01-20T04:05:35.085Z,-6.29
2019-01-20T04:08:07.440Z,-6.26
2019-01-20T04:10:39.807Z,-6.28
2019-01-20T04:13:12.079Z,-6.28
2019-01-20T04:15:44.427Z,-6.28
2019-01-20T04:18:16.713Z,-6.29
2019-01-20T04:20:49.054Z,-6.31
2019-01-20T04:23:21.371Z,-6.28
2019-01-20T04:25:53.708Z,-6.35
2019-01-20T04:28:26.011Z,-6.37
2019-01-20T04:30:58.350Z,-6.42
2019-01-20T04:33:31.107Z,-6.44
2019-01-20T04:36:03.477Z,-6.43
2019-01-20T04:38:35.764Z,-6.43
2019-01-20T04:41:08.145Z,-6.42
2019-01-20T04:43:40.541Z,-6.40
2019-01-20T04:46:12.931Z,-6.35
2019-01-20T04:48:45.311Z,-6.30
2019-01-20T04:51:17.684Z,-6.27
2019-01-20T04:53:50.212Z,-6.26
2019-01-20T04:56:22.579Z,-6.17
2019-01-20T04:58:54.876Z,-6.10
2019-01-20T05:01:27.192Z,-6.19
2019-01-20T05:03:59.545Z,-6.19
2019-01-20T05:06:31.837Z,-6.25
2019-01-20T05:09:06.034Z,-6.22
2019-01-20T05:11:38.356Z,-6.27
2019-01-20T05:14:10.701Z,-6.26
2019-01-20T05:16:43.013Z,-6.34
2019-01-20T05:19:15.443Z,-6.45
2019-01-20T05:21:47.761Z,-6.46
2019-01-20T05:24:20.063Z,-6.45
2019-01-20T05:26:52.406Z,-6.46
2019-01-20T05:29:24.695Z,-6.53
2019-01-20T05:31:57.022Z,-6.58
2019-01-20T05:34:29.348Z,-6.62
2019-01-20T05:37:01.778Z,-6.68
2019-01-20T05:39:34.213Z,-6.66
2019-01-20T05:42:06.530Z,-6.66
2019-01-20T05:44:38.876Z,-6.64
2019-01-20T05:47:11.359Z,-6.71
2019-01-20T05:49:44.118Z,-6.80
2019-01-20T05:52:16.550Z,-6.77
2019-01-20T05:54:49.272Z,-6.83
2019-01-20T05:57:22.664Z,-6.82
2019-01-20T05:59:54.958Z,-6.83
2019-01-20T06:02:27.311Z,-6.87
2019-01-20T06:05:01.567Z,-6.87
2019-01-20T06:07:33.895Z,-6.85
2019-01-20T06:10:07.536Z,-6.87
2019-01-20T06:12:39.916Z,-6.85
2019-01-20T06:15:19.111Z,-6.85
2019-01-20T06:17:51.458Z,-6.84
2019-01-20T06:20:23.783Z,-6.80
2019-01-20T06:22:56.157Z,-6.83
2019-01-20T06:25:28.470Z,-6.81
2019-01-20T06:28:00.828Z,-6.80
2019-01-20T06:30:33.936Z,-6.81
2019-01-20T06:33:07.766Z,-6.82
2019-01-20T06:35:40.091Z,-6.83
2019-01-20T06:38:12.492Z,-6.81
2019-01-20T06:40:44.812Z,-6.83
2019-01-20T06:43:17.137Z,-6.80
2019-01-20T06:45:49.502Z,-6.84
2019-01-20T06:48:21.956Z,-6.86
2019-01-20T06:50:54.299Z,-6.88
2019-01-20T06:53:26.659Z,-6.89
2019-01-20T06:55:59.123Z,-6.87
2019-01-20T06:58:31.686Z,-6.84
2019-01-20T07:01:04.334Z,-6.86
2019-01-20T07:03:36.717Z,-6.84
2019-01-20T07:06:10.132Z,-6.84
2019-01-20T07:08:42.475Z,-6.74
2019-01-20T07:11:14.839Z,-6.75
2019-01-20T07:13:47.352Z,-6.72
2019-01-20T07:16:19.693Z,-6.65
2019-01-20T07:18:52.117Z,-6.65
2019-01-20T07:21:24.454Z,-6.67
2019-01-20T07:23:57.607Z,-6.64
2019-01-20T07:26:38.251Z,-6.63
2019-01-20T07:29:12.131Z,-6.54
2019-01-20T07:31:58.328Z,-6.52
2019-01-20T07:34:31.974Z,-6.49
2019-01-20T07:37:04.940Z,-6.48
2019-01-20T07:39:37.324Z,-6.43
2019-01-20T07:42:13.512Z,-6.38
2019-01-20T07:44:45.965Z,-6.30
2019-01-20T07:47:20.038Z,-6.28
2019-01-20T07:49:52.471Z,-6.24
2019-01-20T07:52:24.885Z,-6.21
2019-01-20T07:54:57.277Z,-6.07
2019-01-20T07:57:29.695Z,-5.98
2019-01-20T08:00:12.535Z,-5.90
2019-01-20T08:02:45.126Z,-5.82
2019-01-20T08:05:18.147Z,-5.71
2019-01-20T08:07:52.102Z,-5.67
2019-01-20T08:10:27.087Z,-5.56
2019-01-20T08:13:00.674Z,-5.47
2019-01-20T08:15:33.393Z,-5.46
2019-01-20T08:18:05.957Z,-5.40
2019-01-20T08:20:38.669Z,-5.33
2019-01-20T08:23:11.017Z,-5.27
2019-01-20T08:25:43.339Z,-5.24
2019-01-20T08:28:15.774Z,-5.07
2019-01-20T08:30:49.229Z,-4.92
2019-01-20T08:33:21.577Z,-4.72
2019-01-20T08:35:53.948Z,-4.51
2019-01-20T08:38:26.275Z,-4.24
2019-01-20T08:40:58.644Z,-4.02
2019-01-20T08:43:32.160Z,-3.85
2019-01-20T08:46:27.324Z,-3.62
2019-01-20T08:49:02.295Z,-3.37
2019-01-20T08:51:37.269Z,-3.15
2019-01-20T08:54:12.684Z,-3.03
2019-01-20T08:56:46.443Z,-2.82
